sensor_id;sensor_type;location;lat;lon;timestamp;temperature;humidity
12847;DHT22;6492;48.128;8.320;2023-06-22T00:02:11;16.10;78.80
12847;DHT22;6492;48.128;8.320;2023-06-22T00:06:14;16.10;78.90
12847;DHT22;6492;48.128;8.320;2023-06-22T00:10:16;16.00;78.50
12847;DHT22;6492;48.128;8.320;2023-06-22T00:14:18;15.90;78.60
12847;DHT22;6492;48.128;8.320;2023-06-22T00:18:19;15.90;78.90
12847;DHT22;6492;48.128;8.320;2023-06-22T00:22:23;15.80;78.70
12847;DHT22;6492;48.128;8.320;2023-06-22T00:26:29;15.80;78.70
12847;DHT22;6492;48.128;8.320;2023-06-22T00:30:32;15.70;78.90
12847;DHT22;6492;48.128;8.320;2023-06-22T00:34:37;15.60;78.90
12847;DHT22;6492;48.128;8.320;2023-06-22T00:38:40;15.60;79.10
12847;DHT22;6492;48.128;8.320;2023-06-22T00:42:41;15.60;79.40
12847;DHT22;6492;48.128;8.320;2023-06-22T00:46:43;15.60;79.60
12847;DHT22;6492;48.128;8.320;2023-06-22T00:50:45;15.50;79.60
12847;DHT22;6492;48.128;8.320;2023-06-22T00:54:52;15.40;79.30
12847;DHT22;6492;48.128;8.320;2023-06-22T00:58:54;15.30;79.50
12847;DHT22;6492;48.128;8.320;2023-06-22T01:02:58;15.20;79.50
12847;DHT22;6492;48.128;8.320;2023-06-22T01:07:05;15.20;79.80
12847;DHT22;6492;48.128;8.320;2023-06-22T01:11:16;15.30;80.60
12847;DHT22;6492;48.128;8.320;2023-06-22T01:15:23;15.40;80.70
12847;DHT22;6492;48.128;8.320;2023-06-22T01:19:36;15.20;80.40
12847;DHT22;6492;48.128;8.320;2023-06-22T01:23:54;15.20;80.60
12847;DHT22;6492;48.128;8.320;2023-06-22T01:28:05;15.20;80.80
12847;DHT22;6492;48.128;8.320;2023-06-22T01:32:17;15.10;80.80
12847;DHT22;6492;48.128;8.320;2023-06-22T01:36:20;15.10;81.00
12847;DHT22;6492;48.128;8.320;2023-06-22T01:40:23;15.10;81.10
12847;DHT22;6492;48.128;8.320;2023-06-22T01:44:26;15.00;81.00
12847;DHT22;6492;48.128;8.320;2023-06-22T01:48:30;15.10;81.40
12847;DHT22;6492;48.128;8.320;2023-06-22T01:52:32;15.10;81.50
12847;DHT22;6492;48.128;8.320;2023-06-22T01:56:34;15.00;81.40
12847;DHT22;6492;48.128;8.320;2023-06-22T02:00:38;15.10;81.70
12847;DHT22;6492;48.128;8.320;2023-06-22T02:04:46;15.10;81.70
12847;DHT22;6492;48.128;8.320;2023-06-22T02:08:51;15.00;81.60
12847;DHT22;6492;48.128;8.320;2023-06-22T02:12:57;15.00;81.60
12847;DHT22;6492;48.128;8.320;2023-06-22T02:16:59;14.80;81.50
12847;DHT22;6492;48.128;8.320;2023-06-22T02:21:02;14.80;81.50
12847;DHT22;6492;48.128;8.320;2023-06-22T02:25:05;14.80;81.60
12847;DHT22;6492;48.128;8.320;2023-06-22T02:29:06;14.70;81.70
12847;DHT22;6492;48.128;8.320;2023-06-22T02:33:08;14.70;81.70
12847;DHT22;6492;48.128;8.320;2023-06-22T02:37:12;14.70;81.70
12847;DHT22;6492;48.128;8.320;2023-06-22T02:41:15;14.70;81.90
12847;DHT22;6492;48.128;8.320;2023-06-22T02:45:18;14.60;81.70
12847;DHT22;6492;48.128;8.320;2023-06-22T02:49:20;14.60;81.80
12847;DHT22;6492;48.128;8.320;2023-06-22T02:53:23;14.60;81.90
12847;DHT22;6492;48.128;8.320;2023-06-22T02:57:25;14.60;82.00
12847;DHT22;6492;48.128;8.320;2023-06-22T03:01:27;14.60;82.00
12847;DHT22;6492;48.128;8.320;2023-06-22T03:05:30;14.50;82.00
12847;DHT22;6492;48.128;8.320;2023-06-22T03:09:34;14.50;82.00
12847;DHT22;6492;48.128;8.320;2023-06-22T03:13:36;14.50;82.10
12847;DHT22;6492;48.128;8.320;2023-06-22T03:17:39;14.50;82.10
12847;DHT22;6492;48.128;8.320;2023-06-22T03:21:41;14.40;82.00
12847;DHT22;6492;48.128;8.320;2023-06-22T03:25:44;14.50;82.20
12847;DHT22;6492;48.128;8.320;2023-06-22T03:29:46;14.60;82.20
12847;DHT22;6492;48.128;8.320;2023-06-22T03:33:48;14.70;82.40
12847;DHT22;6492;48.128;8.320;2023-06-22T03:37:50;14.70;82.50
12847;DHT22;6492;48.128;8.320;2023-06-22T03:41:53;14.60;82.40
12847;DHT22;6492;48.128;8.320;2023-06-22T03:45:55;14.60;82.30
12847;DHT22;6492;48.128;8.320;2023-06-22T03:49:56;14.70;82.50
12847;DHT22;6492;48.128;8.320;2023-06-22T03:53:58;14.80;82.50
12847;DHT22;6492;48.128;8.320;2023-06-22T03:58:02;14.80;82.50
12847;DHT22;6492;48.128;8.320;2023-06-22T04:02:06;14.90;82.60
12847;DHT22;6492;48.128;8.320;2023-06-22T04:06:07;15.00;82.50
12847;DHT22;6492;48.128;8.320;2023-06-22T04:10:09;15.20;82.50
12847;DHT22;6492;48.128;8.320;2023-06-22T04:14:13;15.30;82.70
12847;DHT22;6492;48.128;8.320;2023-06-22T04:18:14;15.40;82.70
12847;DHT22;6492;48.128;8.320;2023-06-22T04:22:16;15.50;82.70
12847;DHT22;6492;48.128;8.320;2023-06-22T04:26:18;15.60;82.80
12847;DHT22;6492;48.128;8.320;2023-06-22T04:30:22;15.70;82.90
12847;DHT22;6492;48.128;8.320;2023-06-22T04:34:29;15.80;82.60
12847;DHT22;6492;48.128;8.320;2023-06-22T04:38:30;15.90;82.80
12847;DHT22;6492;48.128;8.320;2023-06-22T04:42:35;15.90;82.70
12847;DHT22;6492;48.128;8.320;2023-06-22T04:46:39;16.10;82.90
12847;DHT22;6492;48.128;8.320;2023-06-22T04:50:41;16.10;82.80
12847;DHT22;6492;48.128;8.320;2023-06-22T04:54:42;16.30;83.00
12847;DHT22;6492;48.128;8.320;2023-06-22T04:58:48;16.30;83.00
12847;DHT22;6492;48.128;8.320;2023-06-22T05:02:53;16.40;83.00
12847;DHT22;6492;48.128;8.320;2023-06-22T05:06:58;16.40;83.00
12847;DHT22;6492;48.128;8.320;2023-06-22T05:11:00;16.40;83.00
12847;DHT22;6492;48.128;8.320;2023-06-22T05:15:03;16.50;83.20
12847;DHT22;6492;48.128;8.320;2023-06-22T05:19:07;16.60;83.20
12847;DHT22;6492;48.128;8.320;2023-06-22T05:23:08;16.70;83.30
12847;DHT22;6492;48.128;8.320;2023-06-22T05:27:12;16.80;83.30
12847;DHT22;6492;48.128;8.320;2023-06-22T05:31:14;16.90;83.50
12847;DHT22;6492;48.128;8.320;2023-06-22T05:35:18;17.00;83.50
12847;DHT22;6492;48.128;8.320;2023-06-22T05:39:19;17.10;83.60
12847;DHT22;6492;48.128;8.320;2023-06-22T05:47:51;17.40;84.00
12847;DHT22;6492;48.128;8.320;2023-06-22T05:51:55;17.40;84.20
12847;DHT22;6492;48.128;8.320;2023-06-22T05:55:57;17.60;84.50
12847;DHT22;6492;48.128;8.320;2023-06-22T06:00:32;17.70;83.80
12847;DHT22;6492;48.128;8.320;2023-06-22T06:04:34;18.00;80.50
12847;DHT22;6492;48.128;8.320;2023-06-22T06:08:37;18.30;76.30
12847;DHT22;6492;48.128;8.320;2023-06-22T06:12:39;18.50;69.10
12847;DHT22;6492;48.128;8.320;2023-06-22T06:16:48;18.90;67.40
12847;DHT22;6492;48.128;8.320;2023-06-22T06:20:50;19.50;58.40
12847;DHT22;6492;48.128;8.320;2023-06-22T06:24:54;20.20;51.30
12847;DHT22;6492;48.128;8.320;2023-06-22T06:29:12;20.90;42.50
12847;DHT22;6492;48.128;8.320;2023-06-22T06:33:16;21.70;34.80
12847;DHT22;6492;48.128;8.320;2023-06-22T06:37:18;22.40;29.20
12847;DHT22;6492;48.128;8.320;2023-06-22T06:41:22;23.10;26.00
12847;DHT22;6492;48.128;8.320;2023-06-22T06:45:24;24.10;23.10
12847;DHT22;6492;48.128;8.320;2023-06-22T06:49:28;25.30;18.80
12847;DHT22;6492;48.128;8.320;2023-06-22T06:53:30;26.40;13.30
12847;DHT22;6492;48.128;8.320;2023-06-22T06:57:33;27.50;11.30
12847;DHT22;6492;48.128;8.320;2023-06-22T07:01:35;28.30;6.50
12847;DHT22;6492;48.128;8.320;2023-06-22T07:05:37;28.70;4.20
12847;DHT22;6492;48.128;8.320;2023-06-22T07:09:39;29.40;2.30
12847;DHT22;6492;48.128;8.320;2023-06-22T07:13:42;28.90;2.30
12847;DHT22;6492;48.128;8.320;2023-06-22T07:17:44;29.20;1.00
12847;DHT22;6492;48.128;8.320;2023-06-22T07:21:46;28.50;3.00
12847;DHT22;6492;48.128;8.320;2023-06-22T07:25:47;28.80;2.40
12847;DHT22;6492;48.128;8.320;2023-06-22T07:29:50;28.80;1.50
12847;DHT22;6492;48.128;8.320;2023-06-22T07:33:52;28.20;2.70
12847;DHT22;6492;48.128;8.320;2023-06-22T07:37:54;27.50;4.00
12847;DHT22;6492;48.128;8.320;2023-06-22T07:41:56;26.60;6.90
12847;DHT22;6492;48.128;8.320;2023-06-22T07:46:17;25.80;9.50
12847;DHT22;6492;48.128;8.320;2023-06-22T07:50:18;25.40;12.10
12847;DHT22;6492;48.128;8.320;2023-06-22T07:54:20;26.40;13.40
12847;DHT22;6492;48.128;8.320;2023-06-22T07:58:22;27.80;7.50
12847;DHT22;6492;48.128;8.320;2023-06-22T08:02:25;28.40;5.90
12847;DHT22;6492;48.128;8.320;2023-06-22T08:06:29;29.70;2.50
12847;DHT22;6492;48.128;8.320;2023-06-22T08:10:31;30.50;1.00
12847;DHT22;6492;48.128;8.320;2023-06-22T08:14:33;31.30;1.00
12847;DHT22;6492;48.128;8.320;2023-06-22T08:18:38;32.50;1.00
12847;DHT22;6492;48.128;8.320;2023-06-22T08:22:41;33.10;1.00
12847;DHT22;6492;48.128;8.320;2023-06-22T08:26:42;32.40;1.00
12847;DHT22;6492;48.128;8.320;2023-06-22T08:30:44;31.90;1.00
12847;DHT22;6492;48.128;8.320;2023-06-22T08:34:47;32.20;1.00
12847;DHT22;6492;48.128;8.320;2023-06-22T08:38:49;32.80;1.00
12847;DHT22;6492;48.128;8.320;2023-06-22T08:42:51;33.20;1.00
12847;DHT22;6492;48.128;8.320;2023-06-22T08:46:53;33.40;1.00
12847;DHT22;6492;48.128;8.320;2023-06-22T08:50:56;33.60;1.00
12847;DHT22;6492;48.128;8.320;2023-06-22T08:54:58;33.80;1.00
12847;DHT22;6492;48.128;8.320;2023-06-22T08:59:00;34.30;1.00
12847;DHT22;6492;48.128;8.320;2023-06-22T09:03:02;34.50;1.00
12847;DHT22;6492;48.128;8.320;2023-06-22T09:07:06;34.70;1.00
12847;DHT22;6492;48.128;8.320;2023-06-22T09:11:08;35.00;1.00
12847;DHT22;6492;48.128;8.320;2023-06-22T09:15:10;35.30;1.00
12847;DHT22;6492;48.128;8.320;2023-06-22T09:19:12;35.60;1.00
12847;DHT22;6492;48.128;8.320;2023-06-22T09:23:15;35.20;1.00
12847;DHT22;6492;48.128;8.320;2023-06-22T09:27:17;35.10;1.00
12847;DHT22;6492;48.128;8.320;2023-06-22T09:31:53;35.10;1.00
12847;DHT22;6492;48.128;8.320;2023-06-22T09:35:56;34.90;1.00
12847;DHT22;6492;48.128;8.320;2023-06-22T09:39:59;34.70;1.00
12847;DHT22;6492;48.128;8.320;2023-06-22T09:44:01;34.20;1.00
12847;DHT22;6492;48.128;8.320;2023-06-22T09:48:03;33.90;1.00
12847;DHT22;6492;48.128;8.320;2023-06-22T09:52:06;34.10;1.00
12847;DHT22;6492;48.128;8.320;2023-06-22T09:56:09;34.30;1.00
12847;DHT22;6492;48.128;8.320;2023-06-22T10:00:16;34.60;1.00
12847;DHT22;6492;48.128;8.320;2023-06-22T10:04:19;35.30;1.00
12847;DHT22;6492;48.128;8.320;2023-06-22T10:08:21;35.90;1.00
12847;DHT22;6492;48.128;8.320;2023-06-22T10:12:24;36.40;1.00
12847;DHT22;6492;48.128;8.320;2023-06-22T10:16:31;37.00;1.00
12847;DHT22;6492;48.128;8.320;2023-06-22T10:20:32;37.10;1.00
12847;DHT22;6492;48.128;8.320;2023-06-22T10:24:34;36.70;1.00
12847;DHT22;6492;48.128;8.320;2023-06-22T10:28:37;36.50;1.00
12847;DHT22;6492;48.128;8.320;2023-06-22T10:32:40;36.10;1.00
12847;DHT22;6492;48.128;8.320;2023-06-22T10:36:42;36.10;1.00
12847;DHT22;6492;48.128;8.320;2023-06-22T10:40:46;36.00;1.00
12847;DHT22;6492;48.128;8.320;2023-06-22T10:44:49;35.60;1.00
12847;DHT22;6492;48.128;8.320;2023-06-22T10:48:52;35.70;1.00
12847;DHT22;6492;48.128;8.320;2023-06-22T10:52:55;35.80;1.00
12847;DHT22;6492;48.128;8.320;2023-06-22T10:56:57;35.60;1.00
12847;DHT22;6492;48.128;8.320;2023-06-22T11:01:00;35.50;1.00
12847;DHT22;6492;48.128;8.320;2023-06-22T11:05:04;35.50;1.00
12847;DHT22;6492;48.128;8.320;2023-06-22T11:09:09;35.00;1.00
12847;DHT22;6492;48.128;8.320;2023-06-22T11:13:16;34.60;1.00
12847;DHT22;6492;48.128;8.320;2023-06-22T11:17:38;33.60;1.00
12847;DHT22;6492;48.128;8.320;2023-06-22T11:21:40;33.10;1.00
12847;DHT22;6492;48.128;8.320;2023-06-22T11:25:42;32.80;1.00
12847;DHT22;6492;48.128;8.320;2023-06-22T11:30:00;32.40;1.00
12847;DHT22;6492;48.128;8.320;2023-06-22T11:34:03;32.30;1.00
12847;DHT22;6492;48.128;8.320;2023-06-22T11:42:48;32.70;1.00
12847;DHT22;6492;48.128;8.320;2023-06-22T11:46:52;32.30;1.00
12847;DHT22;6492;48.128;8.320;2023-06-22T11:50:56;31.80;1.00
12847;DHT22;6492;48.128;8.320;2023-06-22T11:54:59;31.70;1.00
12847;DHT22;6492;48.128;8.320;2023-06-22T11:59:03;31.30;1.00
12847;DHT22;6492;48.128;8.320;2023-06-22T12:03:05;30.90;1.00
12847;DHT22;6492;48.128;8.320;2023-06-22T12:07:09;30.50;1.00
12847;DHT22;6492;48.128;8.320;2023-06-22T12:11:10;30.50;1.00
12847;DHT22;6492;48.128;8.320;2023-06-22T12:15:21;30.40;1.00
12847;DHT22;6492;48.128;8.320;2023-06-22T12:19:23;30.20;1.00
12847;DHT22;6492;48.128;8.320;2023-06-22T12:23:27;30.00;1.00
12847;DHT22;6492;48.128;8.320;2023-06-22T12:27:29;29.70;1.00
12847;DHT22;6492;48.128;8.320;2023-06-22T12:31:36;29.40;1.00
12847;DHT22;6492;48.128;8.320;2023-06-22T12:35:40;29.10;1.00
12847;DHT22;6492;48.128;8.320;2023-06-22T12:39:43;28.80;1.00
12847;DHT22;6492;48.128;8.320;2023-06-22T12:43:46;28.70;1.00
12847;DHT22;6492;48.128;8.320;2023-06-22T12:48:13;28.50;1.00
12847;DHT22;6492;48.128;8.320;2023-06-22T12:52:14;28.30;1.00
12847;DHT22;6492;48.128;8.320;2023-06-22T12:56:18;28.10;1.00
12847;DHT22;6492;48.128;8.320;2023-06-22T13:00:22;27.90;1.00
12847;DHT22;6492;48.128;8.320;2023-06-22T13:04:24;27.80;1.00
12847;DHT22;6492;48.128;8.320;2023-06-22T13:08:26;28.00;1.00
12847;DHT22;6492;48.128;8.320;2023-06-22T13:12:29;28.40;1.00
12847;DHT22;6492;48.128;8.320;2023-06-22T13:16:35;28.60;1.00
12847;DHT22;6492;48.128;8.320;2023-06-22T13:20:37;28.70;1.00
12847;DHT22;6492;48.128;8.320;2023-06-22T13:24:39;28.80;1.00
12847;DHT22;6492;48.128;8.320;2023-06-22T13:28:42;28.80;1.00
12847;DHT22;6492;48.128;8.320;2023-06-22T13:32:56;28.70;1.00
12847;DHT22;6492;48.128;8.320;2023-06-22T13:36:58;28.60;1.00
12847;DHT22;6492;48.128;8.320;2023-06-22T13:40:59;28.40;1.00
12847;DHT22;6492;48.128;8.320;2023-06-22T13:45:03;28.10;1.00
12847;DHT22;6492;48.128;8.320;2023-06-22T13:49:05;27.90;1.00
12847;DHT22;6492;48.128;8.320;2023-06-22T13:53:07;27.80;1.00
12847;DHT22;6492;48.128;8.320;2023-06-22T13:57:09;27.80;1.00
12847;DHT22;6492;48.128;8.320;2023-06-22T14:01:12;27.90;1.00
12847;DHT22;6492;48.128;8.320;2023-06-22T14:05:14;27.90;1.00
12847;DHT22;6492;48.128;8.320;2023-06-22T14:09:15;27.70;1.00
12847;DHT22;6492;48.128;8.320;2023-06-22T14:13:17;27.40;1.00
12847;DHT22;6492;48.128;8.320;2023-06-22T14:17:20;27.00;1.00
12847;DHT22;6492;48.128;8.320;2023-06-22T14:21:26;27.00;1.00
12847;DHT22;6492;48.128;8.320;2023-06-22T14:25:27;27.50;1.00
12847;DHT22;6492;48.128;8.320;2023-06-22T14:29:29;27.60;1.00
12847;DHT22;6492;48.128;8.320;2023-06-22T14:33:32;27.60;1.00
12847;DHT22;6492;48.128;8.320;2023-06-22T14:37:34;27.50;1.00
12847;DHT22;6492;48.128;8.320;2023-06-22T14:41:36;27.30;1.00
12847;DHT22;6492;48.128;8.320;2023-06-22T14:45:37;27.10;1.00
12847;DHT22;6492;48.128;8.320;2023-06-22T14:49:40;27.00;1.00
12847;DHT22;6492;48.128;8.320;2023-06-22T14:53:43;26.80;1.00
12847;DHT22;6492;48.128;8.320;2023-06-22T14:57:46;26.80;1.00
12847;DHT22;6492;48.128;8.320;2023-06-22T15:01:48;27.10;1.00
12847;DHT22;6492;48.128;8.320;2023-06-22T15:05:51;27.10;1.00
12847;DHT22;6492;48.128;8.320;2023-06-22T15:09:52;26.80;1.00
12847;DHT22;6492;48.128;8.320;2023-06-22T15:13:57;26.60;1.00
12847;DHT22;6492;48.128;8.320;2023-06-22T15:17:59;26.00;1.00
12847;DHT22;6492;48.128;8.320;2023-06-22T15:22:07;25.50;1.00
12847;DHT22;6492;48.128;8.320;2023-06-22T15:26:09;25.10;1.00
12847;DHT22;6492;48.128;8.320;2023-06-22T15:30:11;24.70;1.00
12847;DHT22;6492;48.128;8.320;2023-06-22T15:34:15;24.40;1.00
12847;DHT22;6492;48.128;8.320;2023-06-22T15:38:18;24.20;1.00
12847;DHT22;6492;48.128;8.320;2023-06-22T15:42:20;23.70;1.00
12847;DHT22;6492;48.128;8.320;2023-06-22T15:46:22;23.20;1.60
12847;DHT22;6492;48.128;8.320;2023-06-22T15:50:24;22.90;4.10
12847;DHT22;6492;48.128;8.320;2023-06-22T15:54:27;22.50;4.80
12847;DHT22;6492;48.128;8.320;2023-06-22T15:58:29;22.10;5.70
12847;DHT22;6492;48.128;8.320;2023-06-22T16:02:31;21.80;7.10
12847;DHT22;6492;48.128;8.320;2023-06-22T16:06:32;21.10;10.00
12847;DHT22;6492;48.128;8.320;2023-06-22T16:10:36;20.30;15.20
12847;DHT22;6492;48.128;8.320;2023-06-22T16:14:39;19.80;20.00
12847;DHT22;6492;48.128;8.320;2023-06-22T16:18:42;19.50;25.00
12847;DHT22;6492;48.128;8.320;2023-06-22T16:22:44;19.20;23.70
12847;DHT22;6492;48.128;8.320;2023-06-22T16:26:47;19.10;23.40
12847;DHT22;6492;48.128;8.320;2023-06-22T16:31:21;19.10;22.80
12847;DHT22;6492;48.128;8.320;2023-06-22T16:35:23;19.00;23.00
12847;DHT22;6492;48.128;8.320;2023-06-22T16:39:24;19.00;21.70
12847;DHT22;6492;48.128;8.320;2023-06-22T16:43:28;19.00;21.80
12847;DHT22;6492;48.128;8.320;2023-06-22T16:47:36;19.00;21.10
12847;DHT22;6492;48.128;8.320;2023-06-22T16:51:38;19.00;20.80
12847;DHT22;6492;48.128;8.320;2023-06-22T16:55:40;19.00;21.30
12847;DHT22;6492;48.128;8.320;2023-06-22T16:59:44;18.90;20.40
12847;DHT22;6492;48.128;8.320;2023-06-22T17:03:51;18.90;21.90
12847;DHT22;6492;48.128;8.320;2023-06-22T17:07:58;18.80;23.30
12847;DHT22;6492;48.128;8.320;2023-06-22T17:12:03;18.70;23.70
12847;DHT22;6492;48.128;8.320;2023-06-22T17:16:09;18.60;24.30
12847;DHT22;6492;48.128;8.320;2023-06-22T17:20:11;18.40;26.90
12847;DHT22;6492;48.128;8.320;2023-06-22T17:24:40;18.40;28.10
12847;DHT22;6492;48.128;8.320;2023-06-22T17:28:49;18.30;26.00
12847;DHT22;6492;48.128;8.320;2023-06-22T17:32:53;18.30;25.10
12847;DHT22;6492;48.128;8.320;2023-06-22T17:36:55;18.40;24.30
12847;DHT22;6492;48.128;8.320;2023-06-22T17:41:00;18.40;25.10
12847;DHT22;6492;48.128;8.320;2023-06-22T17:45:03;18.50;24.30
12847;DHT22;6492;48.128;8.320;2023-06-22T17:49:08;18.50;23.50
12847;DHT22;6492;48.128;8.320;2023-06-22T17:53:12;18.50;23.90
12847;DHT22;6492;48.128;8.320;2023-06-22T17:57:17;18.50;24.50
12847;DHT22;6492;48.128;8.320;2023-06-22T18:01:43;18.60;25.00
12847;DHT22;6492;48.128;8.320;2023-06-22T18:05:55;18.60;25.10
12847;DHT22;6492;48.128;8.320;2023-06-22T18:10:08;18.50;25.00
12847;DHT22;6492;48.128;8.320;2023-06-22T18:14:18;18.60;22.80
12847;DHT22;6492;48.128;8.320;2023-06-22T18:18:31;18.70;22.60
12847;DHT22;6492;48.128;8.320;2023-06-22T18:22:41;18.70;22.50
12847;DHT22;6492;48.128;8.320;2023-06-22T18:26:55;18.90;22.20
12847;DHT22;6492;48.128;8.320;2023-06-22T18:30:57;18.90;21.90
12847;DHT22;6492;48.128;8.320;2023-06-22T18:35:33;19.00;14.90
12847;DHT22;6492;48.128;8.320;2023-06-22T18:39:49;19.10;11.80
12847;DHT22;6492;48.128;8.320;2023-06-22T18:43:59;18.90;11.50
12847;DHT22;6492;48.128;8.320;2023-06-22T18:48:03;18.70;12.60
12847;DHT22;6492;48.128;8.320;2023-06-22T18:52:16;18.50;17.20
12847;DHT22;6492;48.128;8.320;2023-06-22T18:56:57;17.90;24.50
12847;DHT22;6492;48.128;8.320;2023-06-22T19:01:23;17.30;30.00
12847;DHT22;6492;48.128;8.320;2023-06-22T19:10:40;16.20;44.90
12847;DHT22;6492;48.128;8.320;2023-06-22T19:15:02;15.90;50.90
12847;DHT22;6492;48.128;8.320;2023-06-22T19:19:12;15.70;53.50
12847;DHT22;6492;48.128;8.320;2023-06-22T19:23:24;15.60;54.70
12847;DHT22;6492;48.128;8.320;2023-06-22T19:27:29;15.60;55.10
12847;DHT22;6492;48.128;8.320;2023-06-22T19:31:34;15.60;54.90
12847;DHT22;6492;48.128;8.320;2023-06-22T19:35:36;15.60;54.90
12847;DHT22;6492;48.128;8.320;2023-06-22T19:39:45;15.60;50.30
12847;DHT22;6492;48.128;8.320;2023-06-22T19:43:47;15.60;51.10
12847;DHT22;6492;48.128;8.320;2023-06-22T19:47:50;15.50;53.20
12847;DHT22;6492;48.128;8.320;2023-06-22T19:52:05;15.50;55.00
12847;DHT22;6492;48.128;8.320;2023-06-22T19:56:08;15.60;57.60
12847;DHT22;6492;48.128;8.320;2023-06-22T20:00:10;15.60;58.20
12847;DHT22;6492;48.128;8.320;2023-06-22T20:04:15;15.60;60.40
12847;DHT22;6492;48.128;8.320;2023-06-22T20:08:20;15.60;61.60
12847;DHT22;6492;48.128;8.320;2023-06-22T20:12:25;15.70;62.10
12847;DHT22;6492;48.128;8.320;2023-06-22T20:16:29;15.80;63.60
12847;DHT22;6492;48.128;8.320;2023-06-22T20:20:32;15.80;65.10
12847;DHT22;6492;48.128;8.320;2023-06-22T20:24:44;15.80;64.00
12847;DHT22;6492;48.128;8.320;2023-06-22T20:28:46;15.80;62.00
12847;DHT22;6492;48.128;8.320;2023-06-22T20:32:50;15.80;62.30
12847;DHT22;6492;48.128;8.320;2023-06-22T20:36:54;15.80;62.00
12847;DHT22;6492;48.128;8.320;2023-06-22T20:40:56;15.80;62.80
12847;DHT22;6492;48.128;8.320;2023-06-22T20:44:58;15.80;63.10
12847;DHT22;6492;48.128;8.320;2023-06-22T20:48:59;15.80;63.40
12847;DHT22;6492;48.128;8.320;2023-06-22T20:53:04;15.80;63.90
12847;DHT22;6492;48.128;8.320;2023-06-22T20:57:06;15.80;64.30
12847;DHT22;6492;48.128;8.320;2023-06-22T21:01:08;15.70;64.70
12847;DHT22;6492;48.128;8.320;2023-06-22T21:05:10;15.80;65.90
12847;DHT22;6492;48.128;8.320;2023-06-22T21:09:14;15.70;66.50
12847;DHT22;6492;48.128;8.320;2023-06-22T21:13:24;15.80;66.40
12847;DHT22;6492;48.128;8.320;2023-06-22T21:17:27;15.70;66.20
12847;DHT22;6492;48.128;8.320;2023-06-22T21:21:28;15.80;66.50
12847;DHT22;6492;48.128;8.320;2023-06-22T21:25:40;15.80;66.70
12847;DHT22;6492;48.128;8.320;2023-06-22T21:29:42;15.80;66.40
12847;DHT22;6492;48.128;8.320;2023-06-22T21:33:56;15.80;66.30
12847;DHT22;6492;48.128;8.320;2023-06-22T21:38:08;15.80;65.50
12847;DHT22;6492;48.128;8.320;2023-06-22T21:42:11;15.90;65.10
12847;DHT22;6492;48.128;8.320;2023-06-22T21:46:36;15.80;64.70
12847;DHT22;6492;48.128;8.320;2023-06-22T21:50:38;15.80;64.80
12847;DHT22;6492;48.128;8.320;2023-06-22T21:54:40;15.80;65.50
12847;DHT22;6492;48.128;8.320;2023-06-22T21:58:43;15.80;65.90
12847;DHT22;6492;48.128;8.320;2023-06-22T22:02:45;15.80;66.30
12847;DHT22;6492;48.128;8.320;2023-06-22T22:06:46;15.80;67.70
12847;DHT22;6492;48.128;8.320;2023-06-22T22:10:51;15.70;68.80
12847;DHT22;6492;48.128;8.320;2023-06-22T22:14:54;15.60;69.50
12847;DHT22;6492;48.128;8.320;2023-06-22T22:18:56;15.60;70.50
12847;DHT22;6492;48.128;8.320;2023-06-22T22:22:57;15.60;71.80
12847;DHT22;6492;48.128;8.320;2023-06-22T22:26:59;15.50;72.50
12847;DHT22;6492;48.128;8.320;2023-06-22T22:31:03;15.50;73.10
12847;DHT22;6492;48.128;8.320;2023-06-22T22:35:05;15.40;73.20
12847;DHT22;6492;48.128;8.320;2023-06-22T22:39:07;15.30;72.40
12847;DHT22;6492;48.128;8.320;2023-06-22T22:43:10;15.30;72.30
12847;DHT22;6492;48.128;8.320;2023-06-22T22:47:13;15.20;71.40
12847;DHT22;6492;48.128;8.320;2023-06-22T22:51:15;15.10;71.90
12847;DHT22;6492;48.128;8.320;2023-06-22T22:55:18;15.00;72.40
12847;DHT22;6492;48.128;8.320;2023-06-22T22:59:20;15.00;72.80
12847;DHT22;6492;48.128;8.320;2023-06-22T23:03:23;15.00;73.80
12847;DHT22;6492;48.128;8.320;2023-06-22T23:07:25;14.90;74.00
12847;DHT22;6492;48.128;8.320;2023-06-22T23:11:28;14.90;73.70
12847;DHT22;6492;48.128;8.320;2023-06-22T23:15:30;14.80;73.80
12847;DHT22;6492;48.128;8.320;2023-06-22T23:19:33;14.80;74.60
12847;DHT22;6492;48.128;8.320;2023-06-22T23:23:36;14.80;75.20
12847;DHT22;6492;48.128;8.320;2023-06-22T23:27:38;14.70;75.90
12847;DHT22;6492;48.128;8.320;2023-06-22T23:31:40;14.70;76.50
12847;DHT22;6492;48.128;8.320;2023-06-22T23:35:46;14.70;77.20
12847;DHT22;6492;48.128;8.320;2023-06-22T23:39:49;14.80;77.30
12847;DHT22;6492;48.128;8.320;2023-06-22T23:43:51;14.60;77.80
12847;DHT22;6492;48.128;8.320;2023-06-22T23:47:53;14.60;78.10
12847;DHT22;6492;48.128;8.320;2023-06-22T23:51:57;14.60;78.60
12847;DHT22;6492;48.128;8.320;2023-06-22T23:55:58;14.60;78.90
